sensor_id;sensor_type;location;lat;lon;timestamp;P1;durP1;ratioP1;P2;durP2;ratioP2
15557;SDS011;7880;50.110;9.372;2022-12-07T00:02:36;21.461538461538456;;;10.361538461538462;;
15557;SDS011;7880;50.110;9.372;2022-12-07T00:07:40;22.446153846153837;;;10.299999999999999;;
15557;SDS011;7880;50.110;9.372;2022-12-07T00:12:45;19.300000000000004;;;11.099999999999996;;
15557;SDS011;7880;50.110;9.372;2022-12-07T00:17:48;16.61538461538462;;;10.115384615384615;;
15557;SDS011;7880;50.110;9.372;2022-12-07T00:22:53;21.569230769230767;;;11.323076923076922;;
15557;SDS011;7880;50.110;9.372;2022-12-07T00:27:58;20.707692307692312;;;10.461538461538463;;
15557;SDS011;7880;50.110;9.372;2022-12-07T00:33:16;19.400000000000002;;;10.299999999999999;;
15557;SDS011;7880;50.110;9.372;2022-12-07T00:38:08;20.076923076923073;;;9.776923076923081;;
15557;SDS011;7880;50.110;9.372;2022-12-07T00:43:14;18.738461538461543;;;10.576923076923075;;
15557;SDS011;7880;50.110;9.372;2022-12-07T00:48:17;18.923076923076927;;;10.176923076923078;;
15557;SDS011;7880;50.110;9.372;2022-12-07T00:53:22;19.838461538461537;;;10.0;;
15557;SDS011;7880;50.110;9.372;2022-12-07T00:58:26;22.946153846153837;;;12.06153846153846;;
15557;SDS011;7880;50.110;9.372;2022-12-07T01:03:30;19.300000000000004;;;11.053846153846154;;
15557;SDS011;7880;50.110;9.372;2022-12-07T01:08:36;19.11538461538462;;;10.200000000000001;;
15557;SDS011;7880;50.110;9.372;2022-12-07T01:13:37;18.023076923076925;;;9.700000000000001;;
15557;SDS011;7880;50.110;9.372;2022-12-07T01:18:41;18.89230769230769;;;10.838461538461539;;
15557;SDS011;7880;50.110;9.372;2022-12-07T01:23:45;16.830769230769224;;;10.176923076923078;;
15557;SDS011;7880;50.110;9.372;2022-12-07T01:28:48;18.87692307692308;;;9.676923076923076;;
15557;SDS011;7880;50.110;9.372;2022-12-07T01:33:55;15.484615384615388;;;10.099999999999998;;
15557;SDS011;7880;50.110;9.372;2022-12-07T01:38:57;16.32307692307692;;;9.599999999999998;;
15557;SDS011;7880;50.110;9.372;2022-12-07T01:44:09;16.846153846153843;;;9.861538461538462;;
15557;SDS011;7880;50.110;9.372;2022-12-07T01:49:13;17.861538461538466;;;10.423076923076923;;
15557;SDS011;7880;50.110;9.372;2022-12-07T01:54:12;24.86153846153847;;;11.076923076923075;;
15557;SDS011;7880;50.110;9.372;2022-12-07T01:59:20;21.38461538461538;;;11.2;;
15557;SDS011;7880;50.110;9.372;2022-12-07T02:04:21;20.599999999999998;;;10.900000000000004;;
15557;SDS011;7880;50.110;9.372;2022-12-07T02:09:28;17.515384615384612;;;10.900000000000004;;
15557;SDS011;7880;50.110;9.372;2022-12-07T02:14:28;19.946153846153837;;;11.56153846153846;;
15557;SDS011;7880;50.110;9.372;2022-12-07T02:20:37;17.93076923076923;;;10.961538461538463;;
15557;SDS011;7880;50.110;9.372;2022-12-07T02:25:30;18.76153846153846;;;11.138461538461534;;
15557;SDS011;7880;50.110;9.372;2022-12-07T02:30:40;24.4;;;12.099999999999996;;
15557;SDS011;7880;50.110;9.372;2022-12-07T02:35:39;22.23846153846154;;;11.576923076923075;;
15557;SDS011;7880;50.110;9.372;2022-12-07T02:40:50;19.900000000000002;;;11.038461538461537;;
15557;SDS011;7880;50.110;9.372;2022-12-07T02:45:50;19.03846153846154;;;10.8;;
15557;SDS011;7880;50.110;9.372;2022-12-07T02:50:50;17.476923076923075;;;10.623076923076924;;
15557;SDS011;7880;50.110;9.372;2022-12-07T02:55:53;19.89230769230769;;;10.715384615384616;;
15557;SDS011;7880;50.110;9.372;2022-12-07T03:00:59;25.369230769230764;;;12.661538461538461;;
15557;SDS011;7880;50.110;9.372;2022-12-07T03:06:07;25.807692307692307;;;12.623076923076924;;
15557;SDS011;7880;50.110;9.372;2022-12-07T03:11:15;22.576923076923073;;;12.338461538461539;;
15557;SDS011;7880;50.110;9.372;2022-12-07T03:16:15;23.77692307692307;;;11.95384615384615;;
15557;SDS011;7880;50.110;9.372;2022-12-07T03:21:22;20.800000000000004;;;12.176923076923078;;
15557;SDS011;7880;50.110;9.372;2022-12-07T03:26:28;21.15384615384615;;;11.53076923076923;;
15557;SDS011;7880;50.110;9.372;2022-12-07T03:31:28;21.87692307692308;;;10.861538461538466;;
15557;SDS011;7880;50.110;9.372;2022-12-07T03:36:32;18.699999999999996;;;10.43846153846154;;
15557;SDS011;7880;50.110;9.372;2022-12-07T03:41:41;18.61538461538462;;;10.076923076923077;;
15557;SDS011;7880;50.110;9.372;2022-12-07T03:46:42;22.23846153846154;;;10.861538461538466;;
15557;SDS011;7880;50.110;9.372;2022-12-07T03:51:56;17.815384615384612;;;9.861538461538462;;
15557;SDS011;7880;50.110;9.372;2022-12-07T03:56:58;21.007692307692306;;;10.93846153846154;;
15557;SDS011;7880;50.110;9.372;2022-12-07T04:02:03;19.26923076923077;;;10.161538461538461;;
15557;SDS011;7880;50.110;9.372;2022-12-07T04:07:04;17.776923076923076;;;9.86923076923077;;
15557;SDS011;7880;50.110;9.372;2022-12-07T04:12:07;20.93076923076923;;;10.984615384615385;;
15557;SDS011;7880;50.110;9.372;2022-12-07T04:17:13;16.992307692307698;;;9.576923076923077;;
15557;SDS011;7880;50.110;9.372;2022-12-07T04:22:15;20.62307692307692;;;10.599999999999998;;
15557;SDS011;7880;50.110;9.372;2022-12-07T04:27:19;14.88461538461538;;;8.061538461538461;;
15557;SDS011;7880;50.110;9.372;2022-12-07T04:32:37;15.376923076923076;;;9.5;;
15557;SDS011;7880;50.110;9.372;2022-12-07T04:37:25;19.36923076923077;;;9.576923076923077;;
15557;SDS011;7880;50.110;9.372;2022-12-07T04:42:34;23.11538461538462;;;10.138461538461538;;
15557;SDS011;7880;50.110;9.372;2022-12-07T04:46:33;20.830769230769228;;;11.607692307692306;;
15557;SDS011;7880;50.110;9.372;2022-12-07T04:51:41;24.446153846153837;;;11.099999999999996;;
15557;SDS011;7880;50.110;9.372;2022-12-07T04:56:40;18.807692307692307;;;9.299999999999999;;
15557;SDS011;7880;50.110;9.372;2022-12-07T05:01:44;17.86923076923077;;;10.476923076923075;;
15557;SDS011;7880;50.110;9.372;2022-12-07T05:06:47;20.13846153846153;;;9.93846153846154;;
15557;SDS011;7880;50.110;9.372;2022-12-07T05:11:52;16.67692307692308;;;9.900000000000002;;
15557;SDS011;7880;50.110;9.372;2022-12-07T05:16:55;21.02307692307692;;;10.861538461538466;;
15557;SDS011;7880;50.110;9.372;2022-12-07T05:21:59;17.992307692307694;;;10.076923076923077;;
15557;SDS011;7880;50.110;9.372;2022-12-07T05:27:03;17.26153846153846;;;9.976923076923075;;
15557;SDS011;7880;50.110;9.372;2022-12-07T05:32:07;20.707692307692305;;;13.153846153846157;;
15557;SDS011;7880;50.110;9.372;2022-12-07T05:37:10;19.43846153846154;;;10.592307692307694;;
15557;SDS011;7880;50.110;9.372;2022-12-07T05:42:17;25.830769230769217;;;11.56153846153846;;
15557;SDS011;7880;50.110;9.372;2022-12-07T05:47:18;17.461538461538463;;;10.0;;
15557;SDS011;7880;50.110;9.372;2022-12-07T05:52:21;22.161538461538463;;;13.93846153846154;;
15557;SDS011;7880;50.110;9.372;2022-12-07T05:57:28;21.9;;;10.7;;
15557;SDS011;7880;50.110;9.372;2022-12-07T06:02:30;17.884615384615383;;;10.715384615384616;;
15557;SDS011;7880;50.110;9.372;2022-12-07T06:07:41;16.876923076923077;;;10.161538461538461;;
15557;SDS011;7880;50.110;9.372;2022-12-07T06:12:39;17.599999999999998;;;10.523076923076925;;
15557;SDS011;7880;50.110;9.372;2022-12-07T06:17:42;20.515384615384615;;;11.276923076923081;;
15557;SDS011;7880;50.110;9.372;2022-12-07T06:22:46;18.515384615384615;;;10.338461538461539;;
15557;SDS011;7880;50.110;9.372;2022-12-07T06:27:50;20.46153846153846;;;10.176923076923078;;
15557;SDS011;7880;50.110;9.372;2022-12-07T06:32:58;21.63846153846153;;;12.038461538461537;;
15557;SDS011;7880;50.110;9.372;2022-12-07T06:38:01;20.276923076923076;;;9.815384615384618;;
15557;SDS011;7880;50.110;9.372;2022-12-07T06:43:05;21.576923076923073;;;10.476923076923075;;
15557;SDS011;7880;50.110;9.372;2022-12-07T06:48:09;19.846153846153843;;;11.030769230769229;;
15557;SDS011;7880;50.110;9.372;2022-12-07T06:53:15;22.976923076923075;;;11.93846153846154;;
15557;SDS011;7880;50.110;9.372;2022-12-07T06:58:19;19.446153846153845;;;11.369230769230771;;
15557;SDS011;7880;50.110;9.372;2022-12-07T07:03:28;23.423076923076927;;;10.576923076923077;;
15557;SDS011;7880;50.110;9.372;2022-12-07T07:08:27;21.061538461538458;;;10.43846153846154;;
15557;SDS011;7880;50.110;9.372;2022-12-07T07:13:33;21.161538461538463;;;10.599999999999998;;
15557;SDS011;7880;50.110;9.372;2022-12-07T07:18:33;19.599999999999998;;;11.076923076923075;;
15557;SDS011;7880;50.110;9.372;2022-12-07T07:23:38;18.05384615384616;;;10.715384615384616;;
15557;SDS011;7880;50.110;9.372;2022-12-07T07:28:41;18.169230769230776;;;9.461538461538463;;
15557;SDS011;7880;50.110;9.372;2022-12-07T07:33:44;18.476923076923082;;;9.676923076923076;;
15557;SDS011;7880;50.110;9.372;2022-12-07T07:38:47;14.630769230769232;;;8.976923076923075;;
15557;SDS011;7880;50.110;9.372;2022-12-07T07:43:50;15.361538461538467;;;9.900000000000002;;
15557;SDS011;7880;50.110;9.372;2022-12-07T07:48:54;16.861538461538466;;;10.0;;
15557;SDS011;7880;50.110;9.372;2022-12-07T07:53:57;22.123076923076926;;;12.815384615384618;;
15557;SDS011;7880;50.110;9.372;2022-12-07T07:59:01;18.461538461538456;;;11.876923076923076;;
15557;SDS011;7880;50.110;9.372;2022-12-07T08:04:05;22.62307692307692;;;11.8;;
15557;SDS011;7880;50.110;9.372;2022-12-07T08:09:09;20.45384615384615;;;11.7;;
15557;SDS011;7880;50.110;9.372;2022-12-07T08:14:13;25.13846153846153;;;12.976923076923075;;
15557;SDS011;7880;50.110;9.372;2022-12-07T08:19:16;23.392307692307686;;;12.023076923076925;;
15557;SDS011;7880;50.110;9.372;2022-12-07T08:24:21;28.2076923076923;;;11.915384615384612;;
15557;SDS011;7880;50.110;9.372;2022-12-07T08:29:27;20.39230769230769;;;11.56153846153846;;
15557;SDS011;7880;50.110;9.372;2022-12-07T08:34:30;28.092307692307696;;;14.599999999999996;;
15557;SDS011;7880;50.110;9.372;2022-12-07T08:39:35;26.338461538461534;;;14.238461538461545;;
15557;SDS011;7880;50.110;9.372;2022-12-07T08:44:40;26.161538461538466;;;14.076923076923073;;
15557;SDS011;7880;50.110;9.372;2022-12-07T08:49:43;27.88461538461538;;;13.699999999999998;;
15557;SDS011;7880;50.110;9.372;2022-12-07T08:54:46;35.23846153846154;;;20.176923076923078;;
15557;SDS011;7880;50.110;9.372;2022-12-07T08:59:50;26.869230769230764;;;14.969230769230771;;
15557;SDS011;7880;50.110;9.372;2022-12-07T09:04:58;35.53846153846155;;;18.838461538461537;;
15557;SDS011;7880;50.110;9.372;2022-12-07T09:09:58;41.31538461538461;;;22.038461538461544;;
15557;SDS011;7880;50.110;9.372;2022-12-07T09:15:00;36.5076923076923;;;20.223076923076924;;
15557;SDS011;7880;50.110;9.372;2022-12-07T09:20:05;48.93076923076922;;;27.54615384615385;;
15557;SDS011;7880;50.110;9.372;2022-12-07T09:25:08;44.638461538461556;;;24.815384615384612;;
15557;SDS011;7880;50.110;9.372;2022-12-07T09:30:15;31.661538461538466;;;16.238461538461543;;
15557;SDS011;7880;50.110;9.372;2022-12-07T09:35:20;26.692307692307686;;;14.32307692307692;;
15557;SDS011;7880;50.110;9.372;2022-12-07T09:40:22;36.5923076923077;;;16.538461538461537;;
15557;SDS011;7880;50.110;9.372;2022-12-07T09:45:26;58.53076923076923;;;34.9923076923077;;
15557;SDS011;7880;50.110;9.372;2022-12-07T09:48:48;36.19230769230769;;;20.207692307692312;;
15557;SDS011;7880;50.110;9.372;2022-12-07T09:53:52;23.053846153846163;;;14.776923076923081;;
15557;SDS011;7880;50.110;9.372;2022-12-07T09:58:58;24.323076923076922;;;13.56153846153846;;
15557;SDS011;7880;50.110;9.372;2022-12-07T10:04:05;21.26153846153846;;;12.661538461538461;;
15557;SDS011;7880;50.110;9.372;2022-12-07T10:09:17;26.346153846153854;;;14.123076923076924;;
15557;SDS011;7880;50.110;9.372;2022-12-07T10:14:12;22.038461538461544;;;12.43846153846154;;
15557;SDS011;7880;50.110;9.372;2022-12-07T10:19:20;20.538461538461533;;;11.930769230769233;;
15557;SDS011;7880;50.110;9.372;2022-12-07T10:24:21;21.438461538461542;;;12.538461538461537;;
15557;SDS011;7880;50.110;9.372;2022-12-07T10:29:24;21.392307692307693;;;11.900000000000004;;
15557;SDS011;7880;50.110;9.372;2022-12-07T10:34:30;20.75384615384615;;;11.253846153846153;;
15557;SDS011;7880;50.110;9.372;2022-12-07T10:39:40;20.76153846153846;;;11.138461538461534;;
15557;SDS011;7880;50.110;9.372;2022-12-07T10:44:36;21.28461538461539;;;11.238461538461543;;
15557;SDS011;7880;50.110;9.372;2022-12-07T10:49:54;26.584615384615372;;;12.861538461538467;;
15557;SDS011;7880;50.110;9.372;2022-12-07T10:54:52;18.584615384615386;;;10.738461538461543;;
15557;SDS011;7880;50.110;9.372;2022-12-07T10:59:55;18.038461538461537;;;10.776923076923081;;
15557;SDS011;7880;50.110;9.372;2022-12-07T11:04:59;15.453846153846147;;;9.676923076923076;;
15557;SDS011;7880;50.110;9.372;2022-12-07T11:10:02;17.26923076923077;;;9.430769230769231;;
15557;SDS011;7880;50.110;9.372;2022-12-07T11:15:10;19.346153846153847;;;8.738461538461538;;
15557;SDS011;7880;50.110;9.372;2022-12-07T11:20:12;17.00769230769231;;;8.76923076923077;;
15557;SDS011;7880;50.110;9.372;2022-12-07T11:25:15;13.400000000000004;;;8.23076923076923;;
15557;SDS011;7880;50.110;9.372;2022-12-07T11:30:18;15.39230769230769;;;8.376923076923076;;
15557;SDS011;7880;50.110;9.372;2022-12-07T11:35:25;16.900000000000002;;;10.538461538461537;;
15557;SDS011;7880;50.110;9.372;2022-12-07T11:40:29;17.292307692307688;;;9.346153846153843;;
15557;SDS011;7880;50.110;9.372;2022-12-07T11:45:42;14.038461538461538;;;7.93076923076923;;
15557;SDS011;7880;50.110;9.372;2022-12-07T11:50:37;12.846153846153843;;;8.623076923076924;;
15557;SDS011;7880;50.110;9.372;2022-12-07T11:55:42;13.215384615384616;;;8.038461538461537;;
15557;SDS011;7880;50.110;9.372;2022-12-07T12:00:45;17.492307692307687;;;9.515384615384615;;
15557;SDS011;7880;50.110;9.372;2022-12-07T12:05:49;16.084615384615386;;;9.16153846153846;;
15557;SDS011;7880;50.110;9.372;2022-12-07T12:10:55;15.900000000000004;;;8.799999999999999;;
15557;SDS011;7880;50.110;9.372;2022-12-07T12:16:04;12.938461538461542;;;7.738461538461536;;
15557;SDS011;7880;50.110;9.372;2022-12-07T12:21:08;17.06153846153846;;;9.900000000000002;;
15557;SDS011;7880;50.110;9.372;2022-12-07T12:26:06;17.638461538461534;;;10.0;;
15557;SDS011;7880;50.110;9.372;2022-12-07T12:31:10;20.12307692307692;;;10.8;;
15557;SDS011;7880;50.110;9.372;2022-12-07T12:36:21;26.97692307692309;;;18.976923076923082;;
15557;SDS011;7880;50.110;9.372;2022-12-07T12:42:42;19.423076923076927;;;14.099999999999996;;
15557;SDS011;7880;50.110;9.372;2022-12-07T12:47:41;8.83846153846154;;;5.561538461538462;;
15557;SDS011;7880;50.110;9.372;2022-12-07T12:58:28;12.723076923076924;;;4.976923076923076;;
15557;SDS011;7880;50.110;9.372;2022-12-07T13:03:21;8.33846153846154;;;4.276923076923077;;
15557;SDS011;7880;50.110;9.372;2022-12-07T13:08:23;6.823076923076924;;;3.7000000000000006;;
15557;SDS011;7880;50.110;9.372;2022-12-07T13:13:28;7.553846153846152;;;5.538461538461537;;
15557;SDS011;7880;50.110;9.372;2022-12-07T13:18:34;6.284615384615383;;;3.661538461538462;;
15557;SDS011;7880;50.110;9.372;2022-12-07T13:23:36;8.299999999999999;;;4.299999999999999;;
15557;SDS011;7880;50.110;9.372;2022-12-07T13:28:41;7.276923076923077;;;3.0;;
15557;SDS011;7880;50.110;9.372;2022-12-07T13:33:43;5.846153846153844;;;3.0538461538461545;;
15557;SDS011;7880;50.110;9.372;2022-12-07T13:38:55;6.923076923076922;;;3.7999999999999994;;
15557;SDS011;7880;50.110;9.372;2022-12-07T13:43:50;4.253846153846154;;;3.100000000000001;;
15557;SDS011;7880;50.110;9.372;2022-12-07T13:48:55;4.684615384615384;;;2.661538461538462;;
15557;SDS011;7880;50.110;9.372;2022-12-07T13:53:59;7.438461538461538;;;3.399999999999999;;
15557;SDS011;7880;50.110;9.372;2022-12-07T14:04:29;7.269230769230772;;;4.200000000000001;;
15557;SDS011;7880;50.110;9.372;2022-12-07T14:09:31;4.36153846153846;;;2.8;;
15557;SDS011;7880;50.110;9.372;2022-12-07T14:14:32;8.823076923076924;;;4.1000000000000005;;
15557;SDS011;7880;50.110;9.372;2022-12-07T14:19:50;8.623076923076924;;;5.261538461538462;;
15557;SDS011;7880;50.110;9.372;2022-12-07T14:24:41;5.4;;;2.7384615384615376;;
15557;SDS011;7880;50.110;9.372;2022-12-07T14:29:44;3.7615384615384633;;;2.1000000000000005;;
15557;SDS011;7880;50.110;9.372;2022-12-07T14:34:56;4.8999999999999995;;;3.338461538461538;;
15557;SDS011;7880;50.110;9.372;2022-12-07T14:39:55;5.0307692307692315;;;2.838461538461538;;
15557;SDS011;7880;50.110;9.372;2022-12-07T14:44:57;8.746153846153847;;;2.961538461538461;;
15557;SDS011;7880;50.110;9.372;2022-12-07T14:50:07;7.823076923076924;;;3.600000000000001;;
15557;SDS011;7880;50.110;9.372;2022-12-07T14:55:02;9.123076923076924;;;4.730769230769231;;
15557;SDS011;7880;50.110;9.372;2022-12-07T15:00:06;5.523076923076925;;;3.899999999999999;;
15557;SDS011;7880;50.110;9.372;2022-12-07T15:05:09;6.523076923076925;;;4.438461538461538;;
15557;SDS011;7880;50.110;9.372;2022-12-07T15:10:13;10.361538461538462;;;5.261538461538462;;
15557;SDS011;7880;50.110;9.372;2022-12-07T15:15:17;8.169230769230769;;;5.1692307692307695;;
15557;SDS011;7880;50.110;9.372;2022-12-07T15:20:19;9.084615384615388;;;4.561538461538462;;
15557;SDS011;7880;50.110;9.372;2022-12-07T15:25:27;11.423076923076925;;;6.576923076923078;;
15557;SDS011;7880;50.110;9.372;2022-12-07T15:30:38;12.107692307692304;;;7.438461538461538;;
15557;SDS011;7880;50.110;9.372;2022-12-07T15:35:32;9.56153846153846;;;6.200000000000002;;
15557;SDS011;7880;50.110;9.372;2022-12-07T15:40:35;11.307692307692308;;;6.284615384615383;;
15557;SDS011;7880;50.110;9.372;2022-12-07T15:45:38;9.261538461538464;;;6.607692307692309;;
15557;SDS011;7880;50.110;9.372;2022-12-07T15:50:48;9.076923076923078;;;5.238461538461538;;
15557;SDS011;7880;50.110;9.372;2022-12-07T15:55:52;11.0;;;6.038461538461537;;
15557;SDS011;7880;50.110;9.372;2022-12-07T16:00:56;10.184615384615382;;;5.6;;
15557;SDS011;7880;50.110;9.372;2022-12-07T16:06:00;9.692307692307692;;;5.638461538461541;;
15557;SDS011;7880;50.110;9.372;2022-12-07T16:11:11;9.823076923076924;;;6.061538461538462;;
15557;SDS011;7880;50.110;9.372;2022-12-07T16:16:10;11.976923076923079;;;7.599999999999999;;
15557;SDS011;7880;50.110;9.372;2022-12-07T16:21:14;8.830769230769231;;;6.592307692307694;;
15557;SDS011;7880;50.110;9.372;2022-12-07T16:26:20;12.2;;;5.738461538461538;;
15557;SDS011;7880;50.110;9.372;2022-12-07T16:31:30;11.769230769230765;;;6.200000000000002;;
15557;SDS011;7880;50.110;9.372;2022-12-07T16:36:36;12.038461538461537;;;6.66153846153846;;
15557;SDS011;7880;50.110;9.372;2022-12-07T16:41:32;13.646153846153847;;;5.738461538461538;;
15557;SDS011;7880;50.110;9.372;2022-12-07T16:46:35;9.576923076923077;;;6.038461538461537;;
15557;SDS011;7880;50.110;9.372;2022-12-07T16:51:43;15.784615384615384;;;8.861538461538462;;
15557;SDS011;7880;50.110;9.372;2022-12-07T16:56:44;19.799999999999994;;;11.415384615384612;;
15557;SDS011;7880;50.110;9.372;2022-12-07T17:01:47;13.900000000000004;;;10.56153846153846;;
15557;SDS011;7880;50.110;9.372;2022-12-07T17:06:53;16.33846153846154;;;8.761538461538462;;
15557;SDS011;7880;50.110;9.372;2022-12-07T17:12:06;10.346153846153843;;;6.861538461538459;;
15557;SDS011;7880;50.110;9.372;2022-12-07T17:17:08;10.284615384615384;;;6.9615384615384635;;
15557;SDS011;7880;50.110;9.372;2022-12-07T17:22:13;9.553846153846154;;;4.538461538461539;;
15557;SDS011;7880;50.110;9.372;2022-12-07T17:27:19;10.55384615384615;;;4.853846153846154;;
15557;SDS011;7880;50.110;9.372;2022-12-07T17:32:22;8.430769230769231;;;6.415384615384614;;
15557;SDS011;7880;50.110;9.372;2022-12-07T17:37:26;8.538461538461537;;;4.3999999999999995;;
15557;SDS011;7880;50.110;9.372;2022-12-07T17:42:37;11.246153846153847;;;5.461538461538463;;
15557;SDS011;7880;50.110;9.372;2022-12-07T17:47:33;7.5230769230769265;;;4.36153846153846;;
15557;SDS011;7880;50.110;9.372;2022-12-07T17:53:10;8.238461538461538;;;5.676923076923076;;
15557;SDS011;7880;50.110;9.372;2022-12-07T17:57:51;8.553846153846154;;;4.869230769230769;;
15557;SDS011;7880;50.110;9.372;2022-12-07T18:02:54;7.323076923076924;;;3.538461538461539;;
15557;SDS011;7880;50.110;9.372;2022-12-07T18:07:59;6.592307692307694;;;3.7384615384615367;;
15557;SDS011;7880;50.110;9.372;2022-12-07T18:13:35;5.8923076923076945;;;3.600000000000001;;
15557;SDS011;7880;50.110;9.372;2022-12-07T18:18:14;8.023076923076925;;;3.961538461538461;;
15557;SDS011;7880;50.110;9.372;2022-12-07T18:23:19;4.838461538461538;;;3.576923076923078;;
15557;SDS011;7880;50.110;9.372;2022-12-07T18:28:27;5.061538461538462;;;3.2;;
15557;SDS011;7880;50.110;9.372;2022-12-07T18:33:26;12.192307692307692;;;7.56923076923077;;
15557;SDS011;7880;50.110;9.372;2022-12-07T18:38:29;31.092307692307706;;;13.723076923076919;;
15557;SDS011;7880;50.110;9.372;2022-12-07T18:43:34;45.24615384615384;;;20.53846153846154;;
15557;SDS011;7880;50.110;9.372;2022-12-07T18:48:38;10.099999999999998;;;6.161538461538461;;
15557;SDS011;7880;50.110;9.372;2022-12-07T18:53:42;11.023076923076925;;;6.200000000000002;;
15557;SDS011;7880;50.110;9.372;2022-12-07T18:59:45;10.838461538461539;;;5.076923076923078;;
15557;SDS011;7880;50.110;9.372;2022-12-07T19:04:25;13.538461538461537;;;6.238461538461538;;
15557;SDS011;7880;50.110;9.372;2022-12-07T19:09:30;7.33846153846154;;;5.138461538461541;;
15557;SDS011;7880;50.110;9.372;2022-12-07T19:14:35;10.984615384615385;;;7.061538461538462;;
15557;SDS011;7880;50.110;9.372;2022-12-07T19:19:39;10.523076923076921;;;5.438461538461538;;
15557;SDS011;7880;50.110;9.372;2022-12-07T19:24:47;10.623076923076924;;;6.599999999999999;;
15557;SDS011;7880;50.110;9.372;2022-12-07T19:29:47;12.54615384615385;;;5.6;;
15557;SDS011;7880;50.110;9.372;2022-12-07T19:34:50;13.123076923076924;;;7.0384615384615365;;
15557;SDS011;7880;50.110;9.372;2022-12-07T19:39:57;16.361538461538466;;;8.200000000000001;;
15557;SDS011;7880;50.110;9.372;2022-12-07T19:44:59;83.6076923076923;;;36.48461538461539;;
15557;SDS011;7880;50.110;9.372;2022-12-07T19:50:06;25.73076923076923;;;15.800000000000002;;
15557;SDS011;7880;50.110;9.372;2022-12-07T19:55:08;15.599999999999996;;;9.461538461538462;;
15557;SDS011;7880;50.110;9.372;2022-12-07T19:59:21;9.946153846153845;;;5.799999999999998;;
15557;SDS011;7880;50.110;9.372;2022-12-07T20:04:21;7.823076923076924;;;5.6;;
15557;SDS011;7880;50.110;9.372;2022-12-07T20:09:25;12.392307692307693;;;6.292307692307692;;
15557;SDS011;7880;50.110;9.372;2022-12-07T20:14:30;10.576923076923075;;;6.269230769230768;;
15557;SDS011;7880;50.110;9.372;2022-12-07T20:19:36;10.123076923076924;;;6.561538461538462;;
15557;SDS011;7880;50.110;9.372;2022-12-07T20:24:43;14.261538461538455;;;7.33846153846154;;
15557;SDS011;7880;50.110;9.372;2022-12-07T20:29:48;28.73846153846155;;;15.269230769230765;;
15557;SDS011;7880;50.110;9.372;2022-12-07T20:34:50;27.330769230769228;;;17.369230769230764;;
15557;SDS011;7880;50.110;9.372;2022-12-07T20:39:54;29.823076923076922;;;16.43846153846154;;
15557;SDS011;7880;50.110;9.372;2022-12-07T20:44:57;16.76153846153846;;;9.876923076923076;;
15557;SDS011;7880;50.110;9.372;2022-12-07T20:50:04;17.830769230769235;;;11.338461538461539;;
15557;SDS011;7880;50.110;9.372;2022-12-07T20:55:06;26.661538461538466;;;15.738461538461545;;
15557;SDS011;7880;50.110;9.372;2022-12-07T21:00:11;17.076923076923077;;;9.469230769230771;;
15557;SDS011;7880;50.110;9.372;2022-12-07T21:05:14;11.861538461538466;;;8.599999999999998;;
15557;SDS011;7880;50.110;9.372;2022-12-07T21:10:17;10.923076923076925;;;7.099999999999999;;
15557;SDS011;7880;50.110;9.372;2022-12-07T21:15:23;13.653846153846153;;;7.338461538461536;;
15557;SDS011;7880;50.110;9.372;2022-12-07T21:20:26;12.092307692307696;;;7.5;;
15557;SDS011;7880;50.110;9.372;2022-12-07T21:25:29;11.761538461538457;;;7.438461538461538;;
15557;SDS011;7880;50.110;9.372;2022-12-07T21:30:32;13.369230769230766;;;8.861538461538462;;
15557;SDS011;7880;50.110;9.372;2022-12-07T21:35:39;13.684615384615382;;;7.400000000000001;;
15557;SDS011;7880;50.110;9.372;2022-12-07T21:40:41;11.330769230769228;;;7.515384615384615;;
15557;SDS011;7880;50.110;9.372;2022-12-07T21:45:48;12.83076923076923;;;8.599999999999998;;
15557;SDS011;7880;50.110;9.372;2022-12-07T21:50:48;10.723076923076919;;;7.0384615384615365;;
15557;SDS011;7880;50.110;9.372;2022-12-07T21:55:52;11.338461538461539;;;7.238461538461538;;
15557;SDS011;7880;50.110;9.372;2022-12-07T22:00:56;11.092307692307694;;;7.692307692307694;;
15557;SDS011;7880;50.110;9.372;2022-12-07T22:05:59;12.0;;;7.9615384615384635;;
15557;SDS011;7880;50.110;9.372;2022-12-07T22:11:04;17.661538461538463;;;8.438461538461539;;
15557;SDS011;7880;50.110;9.372;2022-12-07T22:16:11;13.646153846153847;;;8.900000000000002;;
15557;SDS011;7880;50.110;9.372;2022-12-07T22:21:12;20.10769230769231;;;10.138461538461538;;